createdAt,value
2023-01-19T00:02:16.321Z,1.38
2023-01-19T00:04:45.240Z,1.58
2023-01-19T00:07:16.462Z,1.45
2023-01-19T00:09:45.989Z,1.52
2023-01-19T00:12:15.029Z,1.40
2023-01-19T00:14:44.564Z,1.33
2023-01-19T00:17:15.009Z,1.50
2023-01-19T00:19:44.493Z,1.23
2023-01-19T00:22:13.003Z,1.80
2023-01-19T00:24:42.493Z,1.63
2023-01-19T00:27:11.937Z,1.65
2023-01-19T00:29:41.976Z,1.73
2023-01-19T00:32:11.733Z,1.40
2023-01-19T00:34:42.963Z,1.45
2023-01-19T00:37:10.173Z,1.40
2023-01-19T00:39:39.313Z,1.80
2023-01-19T00:42:27.134Z,1.50
2023-01-19T00:44:56.659Z,1.55
2023-01-19T00:47:23.547Z,1.60
2023-01-19T00:49:50.441Z,1.70
2023-01-19T00:52:19.460Z,1.88
2023-01-19T00:54:51.301Z,1.73
2023-01-19T00:57:21.750Z,1.75
2023-01-19T00:59:48.613Z,1.88
2023-01-19T01:02:15.507Z,1.58
2023-01-19T01:04:42.463Z,1.50
2023-01-19T01:07:09.312Z,1.15
2023-01-19T01:09:36.164Z,1.70
2023-01-19T01:12:02.995Z,1.65
2023-01-19T01:14:29.811Z,1.60
2023-01-19T01:16:56.767Z,1.38
2023-01-19T01:19:23.548Z,1.60
2023-01-19T01:21:51.274Z,1.65
2023-01-19T01:24:19.474Z,1.73
2023-01-19T01:26:46.346Z,1.75
2023-01-19T01:29:13.233Z,1.73
2023-01-19T01:31:40.107Z,1.23
2023-01-19T01:34:07.280Z,1.63
2023-01-19T01:36:34.144Z,1.27
2023-01-19T01:39:01.097Z,1.90
2023-01-19T01:41:27.894Z,1.58
2023-01-19T01:43:58.677Z,1.50
2023-01-19T01:46:26.834Z,1.52
2023-01-19T01:49:08.052Z,1.65
2023-01-19T01:51:38.051Z,1.48
2023-01-19T01:54:17.162Z,1.80
2023-01-19T01:56:45.187Z,1.67
2023-01-19T01:59:26.040Z,1.50
2023-01-19T02:02:13.119Z,1.52
2023-01-19T02:04:43.281Z,1.50
2023-01-19T02:07:31.381Z,1.60
2023-01-19T02:10:17.039Z,1.77
2023-01-19T02:13:02.922Z,1.58
2023-01-19T02:15:29.886Z,2.05
2023-01-19T02:17:58.853Z,2.22
2023-01-19T02:20:27.682Z,2.10
2023-01-19T02:22:55.634Z,2.05
2023-01-19T02:25:23.182Z,2.00
2023-01-19T02:27:50.534Z,1.70
2023-01-19T02:30:17.805Z,1.70
2023-01-19T02:32:44.792Z,2.30
2023-01-19T02:35:12.405Z,2.20
2023-01-19T02:37:40.478Z,1.63
2023-01-19T02:40:10.480Z,2.10
2023-01-19T02:42:39.463Z,1.75
2023-01-19T02:45:09.490Z,1.80
2023-01-19T02:47:40.722Z,1.90
2023-01-19T02:50:27.511Z,1.88
2023-01-19T02:53:00.079Z,1.52
2023-01-19T02:55:28.522Z,1.75
2023-01-19T02:58:14.406Z,1.52
2023-01-19T03:00:53.640Z,1.95
2023-01-19T03:03:39.429Z,1.30
2023-01-19T03:06:18.718Z,1.75
2023-01-19T03:09:02.525Z,2.10
2023-01-19T03:11:33.194Z,2.40
2023-01-19T03:14:03.028Z,1.52
2023-01-19T03:16:33.251Z,1.70
2023-01-19T03:19:06.543Z,1.73
2023-01-19T03:21:35.191Z,1.73
2023-01-19T03:24:03.308Z,1.70
2023-01-19T03:26:32.142Z,1.83
2023-01-19T03:29:00.200Z,1.50
2023-01-19T03:31:29.868Z,1.60
2023-01-19T03:33:58.917Z,1.55
2023-01-19T03:36:29.728Z,1.52
2023-01-19T03:38:58.086Z,1.23
2023-01-19T03:41:26.216Z,1.95
2023-01-19T03:43:53.635Z,1.92
2023-01-19T03:46:20.918Z,1.88
2023-01-19T03:48:48.026Z,1.80
2023-01-19T03:51:17.598Z,1.80
2023-01-19T03:53:44.821Z,1.50
2023-01-19T03:56:22.896Z,1.30
2023-01-19T03:58:49.867Z,1.60
2023-01-19T04:01:17.713Z,1.70
2023-01-19T04:03:44.594Z,1.60
2023-01-19T04:06:11.540Z,1.83
2023-01-19T04:08:38.430Z,1.67
2023-01-19T04:11:05.267Z,1.65
2023-01-19T04:13:32.335Z,1.60
2023-01-19T04:16:00.208Z,1.88
2023-01-19T04:18:30.393Z,1.88
2023-01-19T04:21:04.094Z,1.58
2023-01-19T04:23:30.940Z,1.58
2023-01-19T04:26:07.319Z,1.98
2023-01-19T04:28:34.945Z,1.75
2023-01-19T04:31:01.804Z,1.70
2023-01-19T04:33:28.701Z,1.92
2023-01-19T04:35:56.158Z,1.85
2023-01-19T04:38:24.022Z,1.42
2023-01-19T04:40:51.144Z,1.70
2023-01-19T04:43:19.151Z,1.70
2023-01-19T04:45:46.570Z,1.80
2023-01-19T04:48:14.208Z,1.90
2023-01-19T04:50:41.848Z,1.70
2023-01-19T04:53:09.057Z,1.88
2023-01-19T04:55:36.977Z,1.80
2023-01-19T04:58:03.767Z,1.25
2023-01-19T05:00:30.660Z,1.88
2023-01-19T05:02:57.777Z,1.92
2023-01-19T05:05:25.215Z,1.90
2023-01-19T05:07:51.984Z,1.90
2023-01-19T05:10:18.908Z,1.52
2023-01-19T05:12:46.053Z,2.13
2023-01-19T05:15:12.870Z,1.98
2023-01-19T05:17:39.877Z,1.90
2023-01-19T05:20:07.021Z,2.50
2023-01-19T05:22:33.945Z,1.80
2023-01-19T05:25:01.714Z,1.88
2023-01-19T05:27:28.515Z,1.92
2023-01-19T05:29:55.379Z,1.83
2023-01-19T05:32:22.187Z,2.10
2023-01-19T05:34:49.001Z,1.75
2023-01-19T05:37:15.789Z,2.00
2023-01-19T05:39:42.582Z,1.90
2023-01-19T05:42:09.392Z,2.03
2023-01-19T05:44:36.221Z,1.90
2023-01-19T05:47:03.157Z,2.00
2023-01-19T05:49:30.234Z,1.73
2023-01-19T05:51:57.167Z,1.80
2023-01-19T05:54:24.030Z,1.98
2023-01-19T05:56:50.973Z,1.75
2023-01-19T05:59:24.161Z,1.58
2023-01-19T06:01:54.407Z,1.92
2023-01-19T06:04:24.028Z,2.05
2023-01-19T06:06:50.856Z,2.10
2023-01-19T06:09:18.096Z,1.77
2023-01-19T06:11:45.570Z,1.90
2023-01-19T06:14:12.555Z,1.92
2023-01-19T06:16:39.492Z,1.92
2023-01-19T06:19:06.433Z,1.83
2023-01-19T06:21:36.776Z,1.65
2023-01-19T06:24:03.850Z,1.85
2023-01-19T06:26:30.838Z,2.05
2023-01-19T06:28:58.175Z,2.00
2023-01-19T06:31:25.329Z,1.98
2023-01-19T06:33:54.535Z,2.03
2023-01-19T06:36:24.464Z,2.17
2023-01-19T06:38:51.355Z,1.88
2023-01-19T06:41:21.005Z,1.95
2023-01-19T06:43:50.373Z,1.80
2023-01-19T06:46:17.403Z,1.83
2023-01-19T06:48:49.065Z,2.13
2023-01-19T06:51:16.119Z,1.90
2023-01-19T06:53:43.003Z,2.00
2023-01-19T06:56:09.786Z,2.08
2023-01-19T06:58:37.138Z,1.90
2023-01-19T07:01:07.580Z,2.60
2023-01-19T07:03:40.081Z,2.28
2023-01-19T07:06:09.751Z,2.10
2023-01-19T07:08:37.771Z,1.80
2023-01-19T07:11:25.050Z,2.20
2023-01-19T07:13:56.438Z,2.03
2023-01-19T07:16:23.489Z,2.10
2023-01-19T07:18:53.101Z,2.22
2023-01-19T07:21:20.027Z,2.70
2023-01-19T07:23:50.310Z,2.40
2023-01-19T07:26:19.992Z,2.58
2023-01-19T07:28:49.897Z,2.38
2023-01-19T07:31:17.917Z,2.60
2023-01-19T07:33:45.089Z,2.35
2023-01-19T07:36:12.074Z,2.45
2023-01-19T07:38:38.936Z,2.40
2023-01-19T07:41:06.787Z,2.55
2023-01-19T07:43:34.279Z,2.63
2023-01-19T07:46:02.071Z,2.60
2023-01-19T07:48:29.078Z,3.03
2023-01-19T07:50:59.989Z,2.75
2023-01-19T07:53:26.867Z,2.83
2023-01-19T07:55:56.845Z,4.00
2023-01-19T07:58:24.515Z,3.17
2023-01-19T08:00:51.495Z,3.10
2023-01-19T08:03:18.813Z,3.28
2023-01-19T08:05:49.693Z,3.40
2023-01-19T08:08:16.568Z,3.58
2023-01-19T08:10:43.333Z,3.03
2023-01-19T08:13:10.148Z,3.13
2023-01-19T08:15:37.626Z,3.55
2023-01-19T08:18:09.818Z,3.42
2023-01-19T08:20:36.718Z,3.00
2023-01-19T08:23:04.943Z,4.05
2023-01-19T08:25:33.033Z,3.97
2023-01-19T08:28:00.116Z,3.33
2023-01-19T08:30:27.130Z,3.30
2023-01-19T08:32:59.548Z,3.25
2023-01-19T08:35:26.511Z,3.67
2023-01-19T08:38:04.671Z,3.35
2023-01-19T08:43:06.686Z,2.75
2023-01-19T08:45:39.834Z,3.22
2023-01-19T08:48:06.618Z,3.22
2023-01-19T08:50:34.128Z,3.53
2023-01-19T08:53:03.371Z,3.75
2023-01-19T08:55:34.227Z,3.80
2023-01-19T08:58:02.148Z,3.50
2023-01-19T09:00:35.014Z,3.95
2023-01-19T09:03:06.977Z,3.47
2023-01-19T09:05:43.103Z,3.97
2023-01-19T09:08:19.877Z,3.63
2023-01-19T09:10:54.680Z,2.92
2023-01-19T09:13:24.729Z,3.67
2023-01-19T09:15:53.504Z,3.20
2023-01-19T09:18:22.489Z,3.55
2023-01-19T09:20:49.949Z,3.55
2023-01-19T09:23:18.027Z,3.30
2023-01-19T09:25:45.903Z,3.22
2023-01-19T09:28:14.642Z,2.95
2023-01-19T09:30:42.437Z,3.20
2023-01-19T09:33:13.914Z,3.17
2023-01-19T09:35:41.533Z,3.30
2023-01-19T09:38:09.049Z,3.30
2023-01-19T09:41:02.075Z,2.85
2023-01-19T09:43:34.947Z,3.80
2023-01-19T09:46:02.725Z,2.97
2023-01-19T09:48:41.858Z,3.53
2023-01-19T09:51:12.329Z,2.95
2023-01-19T09:53:50.561Z,3.15
2023-01-19T09:58:44.430Z,3.50
2023-01-19T10:01:35.318Z,4.18
2023-01-19T10:04:08.175Z,3.80
2023-01-19T10:06:35.384Z,3.38
2023-01-19T10:09:12.043Z,3.03
2023-01-19T10:11:58.147Z,3.33
2023-01-19T10:14:35.167Z,2.58
2023-01-19T10:17:23.894Z,2.20
2023-01-19T10:19:59.833Z,2.33
2023-01-19T10:22:38.833Z,3.05
2023-01-19T10:28:21.329Z,2.70
2023-01-19T10:30:49.424Z,2.67
2023-01-19T10:33:16.790Z,2.72
2023-01-19T10:35:45.567Z,3.08
2023-01-19T10:38:14.740Z,3.10
2023-01-19T10:41:06.992Z,3.75
2023-01-19T10:43:43.818Z,3.50
2023-01-19T10:46:19.264Z,3.95
2023-01-19T10:48:48.317Z,3.53
2023-01-19T10:51:15.320Z,3.50
2023-01-19T10:53:45.547Z,3.10
2023-01-19T10:56:17.821Z,3.13
2023-01-19T10:58:53.046Z,3.40
2023-01-19T11:01:32.758Z,2.33
2023-01-19T11:04:05.821Z,2.33
2023-01-19T11:06:33.997Z,2.47
2023-01-19T11:09:14.224Z,2.40
2023-01-19T11:11:44.718Z,2.22
2023-01-19T11:14:21.928Z,2.17
2023-01-19T11:16:51.591Z,2.28
2023-01-19T11:19:29.354Z,1.95
2023-01-19T11:22:22.187Z,2.38
2023-01-19T11:24:55.080Z,2.50
2023-01-19T11:27:22.279Z,2.35
2023-01-19T11:29:50.807Z,2.22
2023-01-19T11:32:42.116Z,3.30
2023-01-19T11:35:30.250Z,2.55
2023-01-19T11:38:23.317Z,2.28
2023-01-19T11:40:57.968Z,2.13
2023-01-19T11:43:47.447Z,1.80
2023-01-19T11:46:20.854Z,1.90
2023-01-19T11:49:06.793Z,1.55
2023-01-19T11:51:59.964Z,1.40
2023-01-19T11:54:29.811Z,1.20
2023-01-19T11:56:59.483Z,1.27
2023-01-19T11:59:30.124Z,0.90
2023-01-19T12:02:01.990Z,1.20
2023-01-19T12:04:37.991Z,1.20
2023-01-19T12:07:09.803Z,1.25
2023-01-19T12:09:42.793Z,2.10
2023-01-19T12:12:18.811Z,2.13
2023-01-19T12:17:35.166Z,1.90
2023-01-19T12:20:12.686Z,2.10
2023-01-19T12:23:05.491Z,1.67
2023-01-19T12:25:49.751Z,1.60
2023-01-19T12:28:20.435Z,1.48
2023-01-19T12:30:53.892Z,1.50
2023-01-19T12:33:25.266Z,1.40
2023-01-19T12:36:07.801Z,1.52
2023-01-19T12:39:04.025Z,1.35
2023-01-19T12:41:40.789Z,1.70
2023-01-19T12:44:14.084Z,1.67
2023-01-19T12:47:10.733Z,2.13
2023-01-19T12:54:40.531Z,2.25
2023-01-19T12:57:34.302Z,1.88
2023-01-19T13:00:06.621Z,2.15
2023-01-19T13:02:44.533Z,2.13
2023-01-19T13:05:24.528Z,2.33
2023-01-19T13:08:06.884Z,1.70
2023-01-19T13:10:52.525Z,2.17
2023-01-19T13:13:25.939Z,2.38
2023-01-19T13:15:58.810Z,1.50
2023-01-19T13:18:35.428Z,1.50
2023-01-19T13:21:04.643Z,1.65
2023-01-19T13:23:52.700Z,1.70
2023-01-19T13:26:30.039Z,2.30
2023-01-19T13:28:58.463Z,1.70
2023-01-19T13:31:25.598Z,1.75
2023-01-19T13:33:54.161Z,1.60
2023-01-19T13:36:33.274Z,1.00
2023-01-19T13:39:01.799Z,1.27
2023-01-19T13:41:33.209Z,1.13
2023-01-19T13:44:05.371Z,1.05
2023-01-19T13:46:33.628Z,1.20
2023-01-19T13:49:04.285Z,1.50
2023-01-19T13:51:31.182Z,1.08
2023-01-19T13:54:01.724Z,1.48
2023-01-19T13:56:31.888Z,0.90
2023-01-19T13:59:12.411Z,1.20
2023-01-19T14:01:47.869Z,1.08
2023-01-19T14:04:33.508Z,0.98
2023-01-19T14:07:16.342Z,1.08
2023-01-19T14:09:55.037Z,1.58
2023-01-19T14:12:22.187Z,1.40
2023-01-19T14:14:52.726Z,1.30
2023-01-19T14:17:35.161Z,1.70
2023-01-19T14:20:05.706Z,1.45
2023-01-19T14:22:51.608Z,1.05
2023-01-19T14:25:28.419Z,1.10
2023-01-19T14:28:28.418Z,1.58
2023-01-19T14:30:55.854Z,1.52
2023-01-19T14:33:52.166Z,1.30
2023-01-19T14:36:27.179Z,1.50
2023-01-19T14:38:54.874Z,1.50
2023-01-19T14:41:37.118Z,1.65
2023-01-19T14:44:08.844Z,1.73
2023-01-19T14:46:35.946Z,1.70
2023-01-19T14:49:04.541Z,1.73
2023-01-19T14:51:31.482Z,1.63
2023-01-19T14:53:59.754Z,1.73
2023-01-19T14:56:28.312Z,1.60
2023-01-19T14:58:55.997Z,1.50
2023-01-19T15:01:23.646Z,1.63
2023-01-19T15:03:50.614Z,1.67
2023-01-19T15:06:18.828Z,1.67
2023-01-19T15:08:46.191Z,1.65
2023-01-19T15:11:22.780Z,1.70
2023-01-19T15:13:50.041Z,1.50
2023-01-19T15:16:20.058Z,1.58
2023-01-19T15:18:46.996Z,1.40
2023-01-19T15:21:15.342Z,1.40
2023-01-19T15:23:42.218Z,1.45
2023-01-19T15:26:12.229Z,1.48
2023-01-19T15:28:41.882Z,1.20
2023-01-19T15:31:11.237Z,1.30
2023-01-19T15:33:38.084Z,1.20
2023-01-19T15:36:05.578Z,1.13
2023-01-19T15:38:32.393Z,1.40
2023-01-19T15:40:59.230Z,1.83
2023-01-19T15:43:26.001Z,1.92
2023-01-19T15:46:02.591Z,2.42
2023-01-19T15:48:29.428Z,1.85
2023-01-19T15:50:56.297Z,1.80
2023-01-19T15:53:27.343Z,1.42
2023-01-19T15:55:57.316Z,1.58
2023-01-19T15:58:24.702Z,1.35
2023-01-19T16:00:55.810Z,1.52
2023-01-19T16:03:22.855Z,1.50
2023-01-19T16:05:49.737Z,2.30
2023-01-19T16:08:16.583Z,2.13
2023-01-19T16:10:43.770Z,1.95
2023-01-19T16:13:11.537Z,1.92
2023-01-19T16:15:39.007Z,1.92
2023-01-19T16:18:06.099Z,2.58
2023-01-19T16:20:33.007Z,2.13
2023-01-19T16:23:13.835Z,2.88
2023-01-19T16:25:41.681Z,3.17
2023-01-19T16:28:08.512Z,2.60
2023-01-19T16:30:35.521Z,2.50
2023-01-19T16:33:02.333Z,2.65
2023-01-19T16:35:29.182Z,2.85
2023-01-19T16:37:56.020Z,2.50
2023-01-19T16:40:22.805Z,3.35
2023-01-19T16:42:49.697Z,2.65
2023-01-19T16:45:16.551Z,3.15
2023-01-19T16:47:53.966Z,2.25
2023-01-19T16:50:30.985Z,2.30
2023-01-19T16:52:58.177Z,2.20
2023-01-19T16:55:25.000Z,2.83
2023-01-19T16:57:52.544Z,2.80
2023-01-19T17:00:19.825Z,2.60
2023-01-19T17:02:47.292Z,2.38
2023-01-19T17:05:20.964Z,2.67
2023-01-19T17:07:47.833Z,2.60
2023-01-19T17:10:16.642Z,2.63
2023-01-19T17:12:46.458Z,2.60
2023-01-19T17:15:13.352Z,2.95
2023-01-19T17:17:40.175Z,2.83
2023-01-19T17:20:10.157Z,2.33
2023-01-19T17:22:43.101Z,2.50
2023-01-19T17:25:11.404Z,2.78
2023-01-19T17:27:43.063Z,2.30
2023-01-19T17:30:11.109Z,2.30
2023-01-19T17:32:50.457Z,2.60
2023-01-19T17:35:26.884Z,2.67
2023-01-19T17:37:59.308Z,2.40
2023-01-19T17:40:27.304Z,2.38
2023-01-19T17:42:57.146Z,3.00
2023-01-19T17:45:26.963Z,2.70
2023-01-19T17:47:59.741Z,2.70
2023-01-19T17:50:32.527Z,2.65
2023-01-19T17:53:00.352Z,2.70
2023-01-19T17:55:32.772Z,2.85
2023-01-19T17:58:00.430Z,2.70
2023-01-19T18:00:27.436Z,3.13
2023-01-19T18:02:54.360Z,2.65
2023-01-19T18:05:24.610Z,3.10
2023-01-19T18:07:51.523Z,2.88
2023-01-19T18:10:21.345Z,3.00
2023-01-19T18:12:52.064Z,3.45
2023-01-19T18:15:22.109Z,3.22
2023-01-19T18:17:54.210Z,3.15
2023-01-19T18:20:25.957Z,2.97
2023-01-19T18:22:54.841Z,3.40
2023-01-19T18:25:27.984Z,3.60
2023-01-19T18:30:40.488Z,3.03
2023-01-19T18:33:11.430Z,3.22
2023-01-19T18:35:38.837Z,4.53
2023-01-19T18:38:09.032Z,3.58
2023-01-19T18:40:39.364Z,3.97
2023-01-19T18:43:10.367Z,3.70
2023-01-19T18:45:45.992Z,3.67
2023-01-19T18:48:17.977Z,3.65
2023-01-19T18:50:45.558Z,4.30
2023-01-19T18:53:16.233Z,4.10
2023-01-19T18:55:52.340Z,4.40
2023-01-19T18:58:23.262Z,3.60
2023-01-19T19:00:50.926Z,4.10
2023-01-19T19:03:21.704Z,4.25
2023-01-19T19:05:51.604Z,3.30
2023-01-19T19:08:18.730Z,4.70
2023-01-19T19:10:45.652Z,3.70
2023-01-19T19:13:20.840Z,4.60
2023-01-19T19:15:51.276Z,3.78
2023-01-19T19:18:23.143Z,4.68
2023-01-19T19:21:01.561Z,4.55
2023-01-19T19:23:33.923Z,4.55
2023-01-19T19:26:11.288Z,4.03
2023-01-19T19:28:39.354Z,4.47
2023-01-19T19:31:11.017Z,3.97
2023-01-19T19:33:38.523Z,4.85
2023-01-19T19:36:06.263Z,4.60
2023-01-19T19:38:33.449Z,4.53
2023-01-19T19:41:11.575Z,4.47
2023-01-19T19:43:43.597Z,4.63
2023-01-19T19:46:16.231Z,4.00
2023-01-19T19:48:47.503Z,4.43
2023-01-19T19:51:30.683Z,4.28
2023-01-19T19:54:06.539Z,4.30
2023-01-19T19:56:34.423Z,4.22
2023-01-19T19:59:01.247Z,4.40
2023-01-19T20:01:32.609Z,4.82
2023-01-19T20:06:30.026Z,4.25
2023-01-19T20:08:57.086Z,4.57
2023-01-19T20:11:26.078Z,3.92
2023-01-19T20:13:53.194Z,4.45
2023-01-19T20:16:21.401Z,4.03
2023-01-19T20:18:51.219Z,3.85
2023-01-19T20:21:22.573Z,3.95
2023-01-19T20:23:50.561Z,4.03
2023-01-19T20:26:20.040Z,4.03
2023-01-19T20:28:46.951Z,3.72
2023-01-19T20:31:16.776Z,4.30
2023-01-19T20:33:46.303Z,4.05
2023-01-19T20:36:23.614Z,4.25
2023-01-19T20:39:01.300Z,4.22
2023-01-19T20:41:39.334Z,4.25
2023-01-19T20:47:02.301Z,4.00
2023-01-19T20:52:20.714Z,3.85
2023-01-19T20:55:01.937Z,3.95
2023-01-19T20:57:37.105Z,4.05
2023-01-19T21:00:08.562Z,4.20
2023-01-19T21:02:42.941Z,4.10
2023-01-19T21:05:14.999Z,4.03
2023-01-19T21:07:44.812Z,4.10
2023-01-19T21:10:20.537Z,3.85
2023-01-19T21:12:50.274Z,3.90
2023-01-19T21:15:24.893Z,4.22
2023-01-19T21:18:01.179Z,4.07
2023-01-19T21:23:19.352Z,3.92
2023-01-19T21:26:00.921Z,4.03
2023-01-19T21:28:36.081Z,4.00
2023-01-19T21:31:13.638Z,3.95
2023-01-19T21:33:46.065Z,3.55
2023-01-19T21:36:16.741Z,3.80
2023-01-19T21:38:46.979Z,3.75
2023-01-19T21:41:21.675Z,3.63
2023-01-19T21:46:45.305Z,3.42
2023-01-19T21:52:06.025Z,3.08
2023-01-19T21:54:33.731Z,2.67
2023-01-19T21:57:05.194Z,3.10
2023-01-19T21:59:38.301Z,3.85
2023-01-19T22:02:06.477Z,3.42
2023-01-19T22:04:37.439Z,3.50
2023-01-19T22:07:07.822Z,3.50
2023-01-19T22:09:36.782Z,3.30
2023-01-19T22:12:06.609Z,3.42
2023-01-19T22:14:37.616Z,3.60
2023-01-19T22:17:07.426Z,3.42
2023-01-19T22:19:37.747Z,3.22
2023-01-19T22:22:07.509Z,3.28
2023-01-19T22:24:34.383Z,3.05
2023-01-19T22:27:03.820Z,2.65
2023-01-19T22:29:35.966Z,2.28
2023-01-19T22:32:09.007Z,2.72
2023-01-19T22:34:42.003Z,1.95
2023-01-19T22:37:10.777Z,2.63
2023-01-19T22:39:43.174Z,2.28
2023-01-19T22:42:17.000Z,2.28
2023-01-19T22:44:46.842Z,2.10
2023-01-19T22:47:17.408Z,2.22
2023-01-19T22:49:53.949Z,2.83
2023-01-19T22:52:31.561Z,2.60
2023-01-19T22:55:01.319Z,2.17
2023-01-19T23:00:18.486Z,2.40
2023-01-19T23:02:49.289Z,2.15
2023-01-19T23:05:16.592Z,3.00
2023-01-19T23:07:43.567Z,2.05
2023-01-19T23:10:10.692Z,2.38
2023-01-19T23:12:37.480Z,2.47
2023-01-19T23:15:04.421Z,2.75
2023-01-19T23:17:31.241Z,2.38
2023-01-19T23:19:58.002Z,2.05
2023-01-19T23:22:24.760Z,2.13
2023-01-19T23:24:51.666Z,2.20
2023-01-19T23:27:18.466Z,2.13
2023-01-19T23:29:45.328Z,2.25
2023-01-19T23:32:12.212Z,2.17
2023-01-19T23:34:39.056Z,1.83
2023-01-19T23:37:05.876Z,2.13
2023-01-19T23:39:32.685Z,2.00
2023-01-19T23:41:59.491Z,2.28
2023-01-19T23:44:26.322Z,2.40
2023-01-19T23:46:53.134Z,2.10
2023-01-19T23:49:19.910Z,2.05
2023-01-19T23:51:46.843Z,1.80
2023-01-19T23:54:13.661Z,2.05
2023-01-19T23:56:42.731Z,2.47
2023-01-19T23:59:11.003Z,2.30
